Time;durP1;ratioP1;P1;durP2;ratioP2;P2;SDS_P1;SDS_P2;PMS_P1;PMS_P2;Temp;Humidity;BMP_temperature;BMP_pressure;BME280_temperature;BME280_humidity;BME280_pressure;Samples;Min_cycle;Max_cycle;Signal;HPM_P1;HPM_P2
2022/01/14 00:01:57;;;;;;;9.82;8.93;;;;;;;2.81;78.93;101717.44;10526556;28;20501;-69
2022/01/14 00:06:59;;;;;;;11.48;9.52;;;;;;;2.58;79.61;101714.22;10526843;28;20496;-67
2022/01/14 00:12:04;;;;;;;10.48;9.45;;;;;;;2.41;80.66;101708.56;10546297;28;20097;-68
2022/01/14 00:17:09;;;;;;;11.63;10.20;;;;;;;2.34;81.06;101702.31;10544684;28;20044;-68
2022/01/14 00:22:16;;;;;;;10.88;9.95;;;;;;;2.30;80.87;101700.44;10544883;28;20040;-68
2022/01/14 00:32:58;;;;;;;11.57;9.23;;;;;;;1.97;82.27;101677.91;10506680;28;20055;-75
2022/01/14 00:38:00;;;;;;;9.75;8.80;;;;;;;1.92;83.12;101679.47;10488652;28;20044;-74
2022/01/14 00:43:03;;;;;;;10.63;9.63;;;;;;;1.80;83.17;101678.22;10487295;28;20044;-73
2022/01/14 00:48:05;;;;;;;10.90;9.88;;;;;;;1.71;83.59;101674.53;10505969;28;20117;-73
2022/01/14 00:53:07;;;;;;;8.70;7.90;;;;;;;1.68;83.54;101653.72;10470152;28;20048;-74
2022/01/14 01:03:29;;;;;;;10.43;8.88;;;;;;;1.62;83.55;101661.28;10505098;28;20041;-74
2022/01/14 01:08:32;;;;;;;10.23;9.30;;;;;;;1.43;84.25;101665.03;10488329;28;20044;-73
2022/01/14 01:13:37;;;;;;;11.63;10.52;;;;;;;1.36;84.89;101663.06;10504270;28;20040;-74
2022/01/14 01:18:39;;;;;;;11.05;9.95;;;;;;;1.30;85.20;101678.44;10503324;28;20048;-73
2022/01/14 01:23:40;;;;;;;11.45;10.45;;;;;;;1.16;85.12;101669.34;10504327;28;20044;-74
2022/01/14 01:29:18;;;;;;;12.60;11.40;;;;;;;0.97;85.78;101666.16;10486150;28;20044;-73
2022/01/14 01:34:18;;;;;;;12.00;10.90;;;;;;;0.82;86.89;101681.13;10502603;28;20048;-73
2022/01/14 01:39:31;;;;;;;13.10;11.95;;;;;;;0.70;87.58;101689.34;10503951;28;20044;-74
2022/01/14 01:44:35;;;;;;;13.15;11.90;;;;;;;0.65;88.17;101700.38;10503400;28;20040;-73
2022/01/14 01:49:38;;;;;;;13.15;11.82;;;;;;;0.71;88.09;101704.09;10484555;28;20040;-73
2022/01/14 01:54:40;;;;;;;13.25;12.05;;;;;;;0.81;87.11;101707.00;10503831;28;20040;-74
2022/01/14 01:59:42;;;;;;;12.73;11.63;;;;;;;0.64;87.54;101707.28;10484627;28;20037;-74
2022/01/14 02:04:43;;;;;;;12.77;11.57;;;;;;;0.55;88.18;101708.66;10484329;28;20048;-73
2022/01/14 02:09:45;;;;;;;14.18;12.98;;;;;;;0.49;88.43;101710.19;10484285;28;20067;-77
2022/01/14 02:15:07;;;;;;;15.05;13.65;;;;;;;0.53;88.29;101716.34;10501250;28;20045;-73
2022/01/14 02:25:30;;;;;;;16.23;14.63;;;;;;;0.33;89.59;101715.63;10501064;28;20047;-74
2022/01/14 02:30:36;;;;;;;17.67;15.90;;;;;;;0.25;90.03;101709.28;10484109;28;20485;-74
2022/01/14 02:35:40;;;;;;;14.85;13.60;;;;;;;0.38;88.96;101713.22;10502007;28;20066;-75
2022/01/14 02:40:43;;;;;;;14.70;13.20;;;;;;;0.33;89.70;101714.75;10500756;28;20045;-74
2022/01/14 02:45:52;;;;;;;14.77;13.45;;;;;;;0.39;89.41;101710.66;10500183;28;20059;-74
2022/01/14 02:51:02;;;;;;;12.95;11.75;;;;;;;0.44;88.44;101703.06;10500875;28;20048;-74
2022/01/14 02:56:10;;;;;;;14.45;13.18;;;;;;;0.66;88.57;101694.38;10482084;28;20045;-74
2022/01/14 03:01:15;;;;;;;13.85;12.55;;;;;;;0.72;89.04;101707.53;10498805;28;20079;-75
2022/01/14 03:06:17;;;;;;;15.18;13.60;;;;;;;0.71;88.92;101696.31;10499779;28;20058;-74
2022/01/14 03:11:35;;;;;;;15.32;13.95;;;;;;;0.67;89.29;101702.22;10482992;28;20052;-75
2022/01/14 03:16:40;;;;;;;15.88;14.48;;;;;;;0.77;90.07;101697.34;10507271;28;20068;-73
2022/01/14 03:21:42;;;;;;;17.52;15.90;;;;;;;0.97;89.57;101693.72;10508969;28;20044;-75
2022/01/14 03:26:46;;;;;;;17.40;15.65;;;;;;;1.26;87.19;101694.69;10489978;28;20041;-75
2022/01/14 03:31:48;;;;;;;18.45;16.52;;;;;;;1.21;87.16;101686.78;10509089;28;20044;-74
2022/01/14 03:36:49;;;;;;;19.00;15.52;;;;;;;1.42;85.72;101681.41;10489577;28;20098;-74
2022/01/14 03:41:51;;;;;;;18.92;17.13;;;;;;;1.41;85.93;101686.53;10507933;28;20463;-74
2022/01/14 03:46:53;;;;;;;19.05;17.15;;;;;;;1.38;85.96;101686.44;10488846;28;20429;-74
2022/01/14 03:51:54;;;;;;;22.38;17.98;;;;;;;1.45;85.76;101676.31;10488216;28;20052;-74
2022/01/14 03:56:56;;;;;;;18.42;16.63;;;;;;;1.34;85.67;101680.28;10489022;28;20050;-74
2022/01/14 04:01:58;;;;;;;21.85;18.60;;;;;;;1.25;86.25;101670.50;10506432;28;20048;-74
2022/01/14 04:06:59;;;;;;;176.75;78.35;;;;;;;1.18;86.46;101675.44;10488975;28;20036;-74
2022/01/14 04:12:02;;;;;;;88.32;40.95;;;;;;;0.97;86.74;101675.59;10489659;28;20090;-74
2022/01/14 04:17:04;;;;;;;22.10;18.75;;;;;;;1.25;86.15;101669.63;10487101;28;20505;-74
2022/01/14 04:22:05;;;;;;;18.30;16.17;;;;;;;1.12;86.43;101665.75;10488529;28;20519;-74
2022/01/14 04:27:07;;;;;;;18.20;15.50;;;;;;;1.30;85.34;101665.47;10486352;28;20040;-75
2022/01/14 04:32:09;;;;;;;19.15;15.52;;;;;;;1.22;85.55;101649.66;10486832;28;20056;-73
2022/01/14 04:37:12;;;;;;;16.33;14.55;;;;;;;1.40;84.97;101639.00;10488124;28;20044;-74
2022/01/14 04:42:13;;;;;;;18.65;14.55;;;;;;;1.42;84.98;101644.25;10506248;28;20059;-74
2022/01/14 04:47:18;;;;;;;15.93;14.35;;;;;;;1.40;84.72;101636.41;10485807;28;20049;-74
2022/01/14 04:52:20;;;;;;;16.27;14.50;;;;;;;1.43;84.57;101623.56;10503683;28;20082;-73
2022/01/14 04:57:21;;;;;;;16.67;13.98;;;;;;;1.23;84.61;101612.56;10485897;28;20044;-73
2022/01/14 05:02:24;;;;;;;15.43;14.02;;;;;;;1.17;84.89;101616.69;10486347;28;20536;-74
2022/01/14 05:07:27;;;;;;;15.00;13.60;;;;;;;1.27;83.82;101611.84;10486083;28;20056;-73
2022/01/14 05:12:33;;;;;;;14.77;13.05;;;;;;;1.36;84.69;101615.56;10485391;28;20067;-73
2022/01/14 05:17:35;;;;;;;13.30;12.20;;;;;;;1.27;84.66;101618.72;10504201;28;20523;-74
2022/01/14 05:22:37;;;;;;;13.63;12.18;;;;;;;1.44;84.51;101624.44;10508770;28;20036;-74
2022/01/14 05:27:38;;;;;;;14.38;12.93;;;;;;;1.34;84.41;101617.22;10490143;28;20052;-73
2022/01/14 05:32:53;;;;;;;14.00;12.70;;;;;;;1.17;85.09;101616.69;10504489;28;20044;-73
2022/01/14 05:37:56;;;;;;;14.40;13.00;;;;;;;1.24;85.29;101616.06;10505664;28;20048;-73
2022/01/14 05:43:03;;;;;;;15.60;14.20;;;;;;;1.19;84.60;101620.19;10507674;28;20040;-73
2022/01/14 05:48:06;;;;;;;13.90;12.60;;;;;;;1.18;85.00;101621.03;10506848;28;20094;-74
2022/01/14 05:53:08;;;;;;;14.30;12.80;;;;;;;0.98;85.53;101620.41;10506877;28;20398;-74
2022/01/14 05:58:09;;;;;;;16.33;14.75;;;;;;;1.05;86.42;101629.25;10489463;28;20067;-74
2022/01/14 06:03:14;;;;;;;14.07;12.88;;;;;;;1.50;83.86;101612.53;10503899;28;20535;-74
2022/01/14 06:08:16;;;;;;;17.70;15.63;;;;;;;1.30;84.60;101608.47;10471320;28;20098;-75
2022/01/14 06:13:18;;;;;;;25.15;21.60;;;;;;;1.30;84.98;101605.88;10488247;28;20060;-74
2022/01/14 06:18:20;;;;;;;37.88;23.77;;;;;;;1.18;86.13;101602.91;10504949;28;20052;-75
2022/01/14 06:28:56;;;;;;;38.15;22.48;;;;;;;1.57;84.53;101585.09;10377393;28;20049;-74
2022/01/14 06:33:57;;;;;;;37.60;22.67;;;;;;;1.24;85.41;101577.22;10382595;28;20045;-74
2022/01/14 06:38:59;;;;;;;31.38;22.10;;;;;;;0.97;87.17;101575.53;10382033;28;20038;-73
2022/01/14 06:44:01;;;;;;;22.83;19.23;;;;;;;1.06;86.14;101574.03;10390102;28;20041;-74
2022/01/14 06:49:03;;;;;;;22.02;19.08;;;;;;;0.85;87.17;101563.88;10386964;28;20069;-74
2022/01/14 06:54:04;;;;;;;19.75;16.92;;;;;;;1.03;86.07;101556.69;10377581;28;20092;-74
2022/01/14 06:59:06;;;;;;;19.48;16.48;;;;;;;0.84;86.38;101547.47;10409685;28;20041;-75
2022/01/14 07:04:08;;;;;;;19.00;16.30;;;;;;;0.72;86.42;101531.56;10401508;28;20049;-74
2022/01/14 07:09:09;;;;;;;26.60;16.20;;;;;;;0.49;87.17;101534.28;10401129;28;20455;-74
2022/01/14 07:14:11;;;;;;;17.20;15.50;;;;;;;0.28;88.00;101530.97;10390276;28;20077;-74
2022/01/14 07:19:12;;;;;;;15.98;13.75;;;;;;;0.21;87.86;101536.75;10380226;28;20050;-73
2022/01/14 07:24:17;;;;;;;17.23;15.45;;;;;;;0.08;89.24;101537.13;10384478;28;20037;-74
2022/01/14 07:29:18;;;;;;;17.27;15.40;;;;;;;0.27;89.04;101525.72;10376587;28;20056;-72
2022/01/14 07:34:20;;;;;;;18.98;15.65;;;;;;;0.45;87.75;101505.66;10377026;28;20138;-73
2022/01/14 07:39:23;;;;;;;17.73;14.98;;;;;;;0.30;87.59;101507.72;10380840;28;20486;-74
2022/01/14 07:44:24;;;;;;;19.27;13.45;;;;;;;0.32;87.96;101500.91;10382602;28;20038;-74
2022/01/14 07:49:26;;;;;;;15.20;11.68;;;;;;;0.53;87.83;101495.53;10400402;28;20042;-73
2022/01/14 07:54:28;;;;;;;11.93;10.70;;;;;;;0.53;87.46;101499.00;10422053;28;20063;-73
2022/01/14 07:59:32;;;;;;;9.98;8.98;;;;;;;0.87;86.43;101500.09;10421618;28;20049;-73
2022/01/14 08:04:36;;;;;;;9.73;8.73;;;;;;;0.94;85.94;101499.44;10427415;28;20073;-74
2022/01/14 08:09:40;;;;;;;9.93;8.82;;;;;;;1.14;84.77;101506.09;10427691;28;20053;-73
2022/01/14 08:14:41;;;;;;;14.00;8.90;;;;;;;1.27;84.00;101507.34;10426337;28;20075;-73
2022/01/14 08:19:43;;;;;;;8.65;7.75;;;;;;;1.53;83.27;101500.31;10424317;28;20479;-73
2022/01/14 08:24:46;;;;;;;11.93;10.80;;;;;;;2.08;80.25;101500.94;10426753;28;20391;-74
2022/01/14 08:29:47;;;;;;;8.13;6.75;;;;;;;2.23;79.10;101493.56;10431783;28;20119;-73
2022/01/14 08:34:50;;;;;;;6.70;6.10;;;;;;;2.29;78.33;101491.13;10429245;28;20045;-72
2022/01/14 08:39:52;;;;;;;7.85;7.05;;;;;;;2.28;78.54;101523.97;10426906;28;20041;-72
2022/01/14 08:44:53;;;;;;;8.82;7.93;;;;;;;2.38;78.28;101513.84;10425545;28;20042;-72
2022/01/14 08:49:55;;;;;;;9.50;7.90;;;;;;;2.35;78.85;101525.03;10428134;28;20402;-72
2022/01/14 08:54:57;;;;;;;9.50;8.60;;;;;;;2.41;78.88;101538.16;10426938;28;20046;-72
2022/01/14 08:59:58;;;;;;;12.73;10.70;;;;;;;2.45;79.60;101558.16;10406986;28;20049;-71
2022/01/14 09:05:00;;;;;;;13.15;11.65;;;;;;;2.84;76.73;101554.78;10425439;28;20111;-71
2022/01/14 09:10:03;;;;;;;12.77;11.48;;;;;;;2.60;78.19;101554.19;10409802;28;20050;-72
2022/01/14 09:15:05;;;;;;;14.20;12.82;;;;;;;2.46;78.92;101562.50;10425079;28;20128;-72
2022/01/14 09:20:08;;;;;;;22.20;17.00;;;;;;;2.33;80.48;101573.41;10424288;28;20080;-71
2022/01/14 09:25:10;;;;;;;25.23;18.67;;;;;;;2.26;80.77;101589.66;10407912;28;20034;-71
2022/01/14 09:30:12;;;;;;;26.88;19.13;;;;;;;2.07;82.13;101596.03;10399144;28;20046;-72
2022/01/14 09:35:14;;;;;;;24.65;19.08;;;;;;;2.07;82.66;101595.16;10365703;28;20041;-72
2022/01/14 09:40:17;;;;;;;24.60;20.70;;;;;;;1.96;83.29;101618.22;10364782;28;20057;-71
2022/01/14 09:45:19;;;;;;;37.67;23.95;;;;;;;2.04;82.76;101616.72;10381152;28;20522;-72
2022/01/14 09:50:22;;;;;;;34.20;22.70;;;;;;;1.88;83.81;101628.38;10380054;28;20096;-72
2022/01/14 09:55:24;;;;;;;43.05;24.05;;;;;;;1.86;84.24;101627.44;10366392;28;20080;-72
2022/01/14 10:00:26;;;;;;;39.85;23.67;;;;;;;2.00;83.63;101618.34;10365115;28;20053;-72
2022/01/14 10:05:35;;;;;;;47.35;25.80;;;;;;;1.80;84.49;101606.50;10382101;28;20048;-71
2022/01/14 10:10:42;;;;;;;35.72;23.98;;;;;;;1.89;84.11;101599.00;10379908;28;20503;-72
2022/01/14 10:15:45;;;;;;;;;;;;;;;1.84;84.08;101585.03;10381454;28;20033;-71
2022/01/14 10:20:47;;;;;;;50.70;26.58;;;;;;;1.84;83.81;101584.16;10378735;28;20020;-72
2022/01/14 10:25:56;;;;;;;49.03;27.00;;;;;;;1.87;83.52;101585.13;10360291;28;20041;-71
2022/01/14 10:30:58;;;;;;;40.33;24.92;;;;;;;1.72;83.91;101576.88;10380040;28;20491;-71
2022/01/14 10:36:00;;;;;;;55.92;26.38;;;;;;;1.72;84.13;101587.25;10381361;28;20042;-71
2022/01/14 10:41:06;;;;;;;36.17;24.02;;;;;;;1.83;83.29;101567.72;10379930;28;20042;-71
2022/01/14 10:46:10;;;;;;;40.58;25.80;;;;;;;1.77;83.93;101551.97;10361874;28;20054;-71
2022/01/14 10:51:16;;;;;;;38.53;24.27;;;;;;;1.86;82.92;101536.69;10368724;28;20104;-71
2022/01/14 10:56:19;;;;;;;33.63;22.88;;;;;;;1.87;83.28;101537.56;10372958;28;20166;-72
2022/01/14 11:01:24;;;;;;;33.75;23.65;;;;;;;2.02;82.15;101514.63;10368761;28;20076;-71
2022/01/14 11:06:35;;;;;;;32.40;23.92;;;;;;;2.01;82.39;101518.94;10367670;28;20411;-72
2022/01/14 11:11:43;;;;;;;38.78;23.70;;;;;;;2.08;82.53;101521.69;10365153;28;20550;-72
2022/01/14 11:16:46;;;;;;;40.92;24.20;;;;;;;2.09;83.59;101528.66;10379192;28;20492;-72
2022/01/14 11:27:11;;;;;;;38.38;24.45;;;;;;;2.18;84.43;101508.16;10379910;28;20057;-74
2022/01/14 11:32:14;;;;;;;40.95;26.45;;;;;;;2.12;85.21;101511.44;10381191;28;20046;-74
2022/01/14 11:37:28;;;;;;;48.25;26.33;;;;;;;2.28;84.71;101515.31;10371043;28;20492;-74
2022/01/14 11:42:50;;;;;;;47.13;25.73;;;;;;;2.13;85.83;101505.44;10393729;28;20111;-75
2022/01/14 11:47:59;;;;;;;46.08;26.00;;;;;;;2.28;86.18;101498.03;10388885;28;20140;-75
2022/01/14 11:53:02;;;;;;;41.03;26.70;;;;;;;2.39;85.75;101502.59;10386726;28;20052;-75
2022/01/14 11:58:09;;;;;;;40.08;25.63;;;;;;;2.40;85.77;101489.69;10392253;28;20038;-75
2022/01/14 12:03:14;;;;;;;48.08;27.73;;;;;;;2.42;86.29;101481.94;10392991;28;20046;-75
2022/01/14 12:08:26;;;;;;;45.88;26.92;;;;;;;2.36;87.07;101471.41;10414730;28;20046;-74
2022/01/14 12:18:49;;;;;;;36.00;25.00;;;;;;;2.44;87.66;101462.09;10434948;28;20073;-75
2022/01/14 12:23:51;;;;;;;44.00;26.00;;;;;;;2.48;87.91;101466.53;10399783;28;20038;-74
2022/01/14 12:29:13;;;;;;;41.58;24.80;;;;;;;2.55;88.23;101450.25;10448361;23;20049;-76
2022/01/14 12:34:15;;;;;;;37.35;23.88;;;;;;;2.57;87.52;101437.28;10464712;28;20041;-74
2022/01/14 12:39:21;;;;;;;38.28;25.52;;;;;;;2.69;87.36;101433.25;10465731;28;20049;-74
2022/01/14 12:44:24;;;;;;;47.95;26.30;;;;;;;2.60;88.01;101420.06;10445052;28;20053;-76
2022/01/14 12:49:32;;;;;;;50.75;26.85;;;;;;;2.65;87.91;101414.97;10465075;28;20068;-75
2022/01/14 12:54:42;;;;;;;53.08;27.42;;;;;;;2.53;88.48;101408.69;10463859;28;20105;-76
2022/01/14 12:59:48;;;;;;;54.72;29.40;;;;;;;2.69;88.02;101419.41;10466551;28;20076;-75
2022/01/14 13:05:00;;;;;;;53.40;28.92;;;;;;;2.70;87.75;101418.53;10464591;28;20037;-75
2022/01/14 13:10:04;;;;;;;64.75;29.45;;;;;;;2.74;87.38;101407.38;10446212;28;20111;-75
2022/01/14 13:15:10;;;;;;;52.92;31.20;;;;;;;2.71;87.98;101412.53;10501349;28;20508;-75
2022/01/14 13:20:15;;;;;;;61.83;33.00;;;;;;;2.67;88.49;101421.09;10507133;28;20040;-76
2022/01/14 13:25:19;;;;;;;54.30;30.98;;;;;;;2.70;88.35;101421.13;10503953;28;20123;-76
2022/01/14 13:30:22;;;;;;;60.88;32.28;;;;;;;2.68;88.51;101417.66;10503884;28;20090;-74
2022/01/14 13:35:31;;;;;;;61.45;32.25;;;;;;;2.69;88.87;101412.47;10503808;28;20501;-75
2022/01/14 13:40:44;;;;;;;64.68;33.85;;;;;;;2.62;89.22;101413.22;10503229;28;20056;-76
2022/01/14 13:45:48;;;;;;;69.75;34.28;;;;;;;2.56;89.71;101417.38;10484414;28;20048;-74
2022/01/14 13:50:54;;;;;;;69.50;36.25;;;;;;;2.49;90.60;101411.16;10483821;28;20498;-74
2022/01/14 13:56:04;;;;;;;66.65;34.78;;;;;;;2.59;90.85;101397.56;10483619;28;20050;-75
2022/01/14 14:01:08;;;;;;;60.80;32.33;;;;;;;2.63;90.17;101390.72;10483438;28;20044;-75
2022/01/14 14:06:20;;;;;;;58.30;31.35;;;;;;;2.70;89.74;101385.69;10483399;28;20524;-75
2022/01/14 14:16:38;;;;;;;65.63;32.60;;;;;;;2.65;89.51;101397.69;10482477;28;20047;-75
2022/01/14 14:21:44;;;;;;;54.33;30.52;;;;;;;2.55;89.68;101397.44;10481059;28;20053;-75
2022/01/14 14:26:46;;;;;;;57.65;31.15;;;;;;;2.65;89.49;101389.00;10500668;28;20048;-73
2022/01/14 14:31:49;;;;;;;52.85;30.88;;;;;;;2.46;90.50;101380.81;10465082;28;20445;-75
2022/01/14 14:36:53;;;;;;;47.70;28.77;;;;;;;2.58;89.81;101380.22;10499172;28;20055;-74
2022/01/14 14:41:55;;;;;;;44.13;30.58;;;;;;;2.61;89.61;101395.88;10481624;28;20056;-75
2022/01/14 14:46:56;;;;;;;49.35;29.30;;;;;;;2.63;89.70;101383.81;10500356;28;20044;-75
2022/01/14 14:51:58;;;;;;;44.15;27.58;;;;;;;2.74;89.60;101371.91;10482207;28;20468;-74
2022/01/14 14:57:00;;;;;;;45.72;28.52;;;;;;;2.77;89.66;101376.31;10481262;28;20057;-74
2022/01/14 15:02:03;;;;;;;40.72;26.05;;;;;;;2.82;89.22;101376.41;10480843;28;20464;-74
2022/01/14 15:07:07;;;;;;;37.00;25.73;;;;;;;2.98;88.99;101384.56;10480954;28;20102;-74
2022/01/14 15:12:12;;;;;;;38.42;25.65;;;;;;;2.80;89.58;101380.69;10490257;28;20044;-74
2022/01/14 15:22:28;;;;;;;35.92;26.75;;;;;;;2.81;89.88;101387.66;10450598;28;20045;-74
2022/01/14 15:27:30;;;;;;;29.38;22.98;;;;;;;2.95;89.32;101391.41;10466798;28;20045;-75
2022/01/14 15:32:32;;;;;;;31.50;23.60;;;;;;;3.03;89.06;101400.22;10465788;28;20091;-75
2022/01/14 15:37:34;;;;;;;32.00;24.05;;;;;;;3.00;88.76;101410.56;10448573;28;20045;-74
2022/01/14 15:42:36;;;;;;;31.88;24.02;;;;;;;3.10;87.97;101406.41;10447121;28;20045;-74
2022/01/14 15:47:38;;;;;;;31.63;24.52;;;;;;;3.06;88.00;101409.81;10463987;28;20348;-74
2022/01/14 15:52:41;;;;;;;34.97;24.27;;;;;;;2.83;90.30;101407.59;10447001;28;20106;-75
2022/01/14 15:57:42;;;;;;;28.00;22.75;;;;;;;2.97;89.39;101413.09;10463858;28;20037;-74
2022/01/14 16:02:44;;;;;;;24.85;22.17;;;;;;;3.05;89.27;101403.72;10445491;28;20041;-75
2022/01/14 16:07:46;;;;;;;24.52;21.90;;;;;;;3.04;89.57;101409.78;10444996;28;20051;-73
2022/01/14 16:12:50;;;;;;;43.10;25.27;;;;;;;3.03;90.46;101421.00;10446330;28;20045;-74
2022/01/14 16:17:51;;;;;;;36.30;25.27;;;;;;;2.96;91.31;101432.09;10486569;28;20041;-76
2022/01/14 16:22:53;;;;;;;36.33;25.20;;;;;;;2.96;91.83;101445.09;10504335;28;20521;-73
2022/01/14 16:27:55;;;;;;;40.08;26.92;;;;;;;2.91;92.39;101463.19;10451345;28;20052;-75
2022/01/14 16:32:57;;;;;;;39.45;26.63;;;;;;;2.90;92.33;101470.94;10498634;28;20070;-75
2022/01/14 16:37:59;;;;;;;46.40;29.50;;;;;;;2.60;94.99;101460.72;10486096;28;20045;-75
2022/01/14 16:43:01;;;;;;;49.83;28.52;;;;;;;2.65;95.55;101474.69;10505320;28;20056;-75
2022/01/14 16:48:04;;;;;;;36.50;27.08;;;;;;;2.84;94.93;101468.22;10469218;28;20048;-74
2022/01/14 16:53:06;;;;;;;44.40;29.40;;;;;;;2.52;97.33;101483.91;10428935;28;20140;-75
2022/01/14 16:58:08;;;;;;;32.13;25.70;;;;;;;2.71;96.86;101464.47;10445841;28;20069;-75
2022/01/14 17:03:10;;;;;;;36.05;24.25;;;;;;;2.86;95.23;101477.78;10446123;28;20100;-76
2022/01/14 17:08:12;;;;;;;39.40;26.27;;;;;;;2.79;95.71;101478.50;10462108;28;20051;-75
2022/01/14 17:13:18;;;;;;;35.15;24.90;;;;;;;2.72;95.94;101484.38;10463140;28;20036;-75
2022/01/14 17:18:24;;;;;;;31.90;24.88;;;;;;;2.82;95.77;101488.06;10429669;28;20132;-74
2022/01/14 17:23:26;;;;;;;27.95;23.63;;;;;;;2.83;95.25;101477.69;10444025;28;20136;-75
2022/01/14 17:28:28;;;;;;;32.10;24.05;;;;;;;2.87;95.87;101476.06;10462521;28;20072;-74
2022/01/14 17:33:30;;;;;;;27.77;22.55;;;;;;;2.82;95.67;101475.97;10461639;28;20140;-75
2022/01/14 17:38:32;;;;;;;28.95;23.65;;;;;;;2.89;95.82;101477.88;10463101;28;20063;-76
2022/01/14 17:43:33;;;;;;;26.25;22.30;;;;;;;2.87;95.64;101471.75;10444107;28;20514;-76
2022/01/14 17:48:36;;;;;;;28.85;22.60;;;;;;;2.80;95.87;101467.28;10461190;28;20101;-76
2022/01/14 17:53:38;;;;;;;25.85;20.75;;;;;;;2.94;95.11;101471.03;10443436;28;20413;-75
2022/01/14 17:58:40;;;;;;;22.38;20.30;;;;;;;2.93;95.35;101458.91;10461271;28;20074;-76
2022/01/14 18:03:41;;;;;;;22.45;20.17;;;;;;;3.02;94.76;101455.63;10442308;28;20041;-76
2022/01/14 18:08:44;;;;;;;23.00;20.65;;;;;;;3.10;94.15;101460.97;10443220;28;20147;-76
2022/01/14 18:13:58;;;;;;;22.98;20.00;;;;;;;3.15;93.75;101480.16;10459374;28;20049;-75
2022/01/14 18:19:01;;;;;;;22.95;20.75;;;;;;;3.06;93.91;101482.56;10442736;28;20102;-75
2022/01/14 18:24:03;;;;;;;24.15;21.58;;;;;;;3.07;93.87;101458.34;10442432;28;20099;-75
2022/01/14 18:29:05;;;;;;;22.90;20.70;;;;;;;3.12;93.31;101464.50;10442151;28;20060;-74
2022/01/14 18:34:11;;;;;;;21.10;19.10;;;;;;;3.22;93.04;101476.84;10459524;28;20048;-74
2022/01/14 18:39:13;;;;;;;20.98;18.92;;;;;;;3.23;92.92;101463.00;10441954;28;20055;-75
2022/01/14 18:44:16;;;;;;;22.20;19.90;;;;;;;3.22;93.26;101471.63;10458739;28;20037;-76
2022/01/14 18:49:18;;;;;;;20.05;18.08;;;;;;;3.34;92.69;101471.03;10441043;28;20120;-74
2022/01/14 18:54:21;;;;;;;18.38;16.88;;;;;;;3.38;92.75;101476.31;10440256;28;20120;-74
2022/01/14 18:59:24;;;;;;;16.48;15.10;;;;;;;3.47;92.50;101478.22;10457655;28;20071;-74
2022/01/14 19:04:26;;;;;;;17.25;15.75;;;;;;;3.56;91.62;101473.22;10459303;28;20053;-75
2022/01/14 19:09:27;;;;;;;18.65;17.05;;;;;;;3.51;92.18;101483.53;10441065;28;20069;-74
2022/01/14 19:14:31;;;;;;;19.70;17.67;;;;;;;3.54;91.86;101481.00;10458123;28;20139;-75
2022/01/14 19:19:32;;;;;;;18.38;16.73;;;;;;;3.53;92.05;101499.13;10440511;28;20576;-74
2022/01/14 19:24:35;;;;;;;20.02;18.17;;;;;;;3.58;92.20;101497.50;10457228;28;20441;-74
2022/01/14 19:29:37;;;;;;;20.08;18.17;;;;;;;3.57;92.28;101505.28;10423071;28;20449;-74
2022/01/14 19:34:40;;;;;;;19.75;17.85;;;;;;;3.59;91.79;101499.28;10439489;28;20593;-74
2022/01/14 19:39:44;;;;;;;19.20;17.48;;;;;;;3.67;91.55;101499.41;10423223;28;20063;-74
2022/01/14 19:44:47;;;;;;;19.83;17.80;;;;;;;3.75;91.12;101487.44;10440784;28;20471;-74
2022/01/14 19:49:48;;;;;;;21.00;19.13;;;;;;;3.70;91.36;101489.97;10438691;28;20049;-74
2022/01/14 19:54:51;;;;;;;20.70;18.80;;;;;;;3.69;91.32;101500.34;10438976;28;20052;-74
2022/01/14 19:59:53;;;;;;;20.58;18.63;;;;;;;3.73;91.55;101507.34;10446703;28;20052;-75
2022/01/14 20:04:55;;;;;;;22.00;20.08;;;;;;;3.77;91.00;101499.66;10463205;28;20043;-75
2022/01/14 20:09:56;;;;;;;21.73;19.52;;;;;;;3.66;91.72;101495.06;10462753;28;20064;-74
2022/01/14 20:14:58;;;;;;;23.50;21.42;;;;;;;3.66;91.75;101501.13;10444599;28;20140;-73
2022/01/14 20:20:00;;;;;;;22.65;20.55;;;;;;;3.67;91.48;101484.69;10444424;28;20110;-74
2022/01/14 20:25:03;;;;;;;23.25;20.95;;;;;;;3.69;91.79;101487.34;10444207;28;20072;-74
2022/01/14 20:30:09;;;;;;;24.63;22.00;;;;;;;3.69;91.89;101493.41;10443844;28;20056;-74
2022/01/14 20:35:11;;;;;;;26.30;22.90;;;;;;;3.64;92.00;101491.56;10444259;28;20048;-75
2022/01/14 20:40:14;;;;;;;25.13;21.92;;;;;;;3.66;91.94;101485.53;10444085;28;20479;-74
2022/01/14 20:45:19;;;;;;;27.60;24.58;;;;;;;3.60;92.11;101480.22;10444042;28;20052;-74
2022/01/14 20:50:24;;;;;;;25.35;22.60;;;;;;;3.67;92.01;101478.59;10443198;28;20465;-74
2022/01/14 20:55:28;;;;;;;24.58;22.05;;;;;;;3.71;91.39;101467.44;10443154;28;20128;-74
2022/01/14 21:00:31;;;;;;;25.67;23.00;;;;;;;3.53;92.52;101471.41;10461473;28;20434;-75
2022/01/14 21:05:35;;;;;;;26.02;23.33;;;;;;;3.54;92.44;101470.59;10459945;28;20069;-74
2022/01/14 21:10:36;;;;;;;30.00;24.50;;;;;;;3.53;93.05;101483.53;10460227;28;20045;-75
2022/01/14 21:15:38;;;;;;;28.75;24.48;;;;;;;3.50;92.67;101480.91;10441938;28;20052;-73
2022/01/14 21:20:40;;;;;;;35.30;24.90;;;;;;;3.72;92.32;101490.00;10459547;28;20601;-74
2022/01/14 21:25:41;;;;;;;27.33;24.40;;;;;;;3.57;92.62;101472.34;10441415;28;20049;-74
2022/01/14 21:30:43;;;;;;;29.92;23.92;;;;;;;3.61;92.92;101478.50;10441196;28;20129;-74
2022/01/14 21:35:45;;;;;;;32.60;25.48;;;;;;;3.49;93.63;101472.19;10458938;28;20083;-75
2022/01/14 21:40:46;;;;;;;29.60;24.90;;;;;;;3.62;93.55;101480.25;10441577;28;20055;-74
2022/01/14 21:45:50;;;;;;;27.35;22.67;;;;;;;3.60;93.05;101482.84;10459523;28;20051;-74
2022/01/14 21:50:55;;;;;;;29.48;22.83;;;;;;;3.77;92.29;101477.97;10424949;28;20136;-74
2022/01/14 21:55:56;;;;;;;26.98;23.00;;;;;;;3.82;92.12;101489.31;10441833;28;20059;-75
2022/01/14 22:00:58;;;;;;;33.17;25.30;;;;;;;3.51;93.45;101487.84;10441032;28;20037;-74
2022/01/14 22:06:00;;;;;;;28.50;21.77;;;;;;;3.84;92.07;101481.53;10457839;28;20426;-73
2022/01/14 22:11:02;;;;;;;24.98;22.42;;;;;;;3.79;91.76;101484.06;10440978;28;20410;-75
2022/01/14 22:16:04;;;;;;;23.33;20.92;;;;;;;3.62;92.51;101486.31;10439459;28;20060;-75
2022/01/14 22:21:05;;;;;;;22.30;19.83;;;;;;;3.70;92.16;101482.16;10457232;28;20048;-74
2022/01/14 22:26:08;;;;;;;23.13;20.92;;;;;;;3.54;92.92;101480.09;10439716;28;20041;-74
2022/01/14 22:31:10;;;;;;;24.08;21.13;;;;;;;3.72;92.68;101497.81;10457918;28;20406;-75
2022/01/14 22:36:11;;;;;;;26.40;22.75;;;;;;;3.58;93.00;101491.44;10456980;28;20033;-74
2022/01/14 22:41:13;;;;;;;24.13;21.75;;;;;;;3.80;91.71;101481.47;10456644;28;20398;-74
2022/01/14 22:46:15;;;;;;;26.58;23.55;;;;;;;3.79;92.35;101479.72;10456721;28;20402;-74
2022/01/14 22:51:17;;;;;;;31.15;24.35;;;;;;;3.62;93.35;101482.84;10456156;28;20049;-74
2022/01/14 22:56:18;;;;;;;38.45;25.80;;;;;;;3.71;92.78;101483.91;10456020;28;20053;-74
2022/01/14 23:01:20;;;;;;;37.25;26.65;;;;;;;3.66;92.78;101482.94;10438087;28;20495;-74
2022/01/14 23:06:21;;;;;;;45.45;28.67;;;;;;;3.78;93.05;101474.50;10437787;28;20454;-74
2022/01/14 23:11:24;;;;;;;35.20;27.10;;;;;;;3.74;93.07;101477.91;10437891;28;20048;-74
2022/01/14 23:16:25;;;;;;;46.95;27.17;;;;;;;3.79;93.07;101473.66;10455733;28;20095;-74
2022/01/14 23:21:27;;;;;;;40.42;27.73;;;;;;;3.77;93.38;101471.03;10437946;28;20053;-73
2022/01/14 23:26:29;;;;;;;49.35;28.85;;;;;;;3.69;94.20;101471.72;10437299;28;20140;-75
2022/01/14 23:31:31;;;;;;;50.90;30.25;;;;;;;3.67;94.38;101471.69;10441268;28;20056;-74
2022/01/14 23:36:32;;;;;;;47.92;29.25;;;;;;;3.72;93.88;101466.59;10464560;28;20446;-75
2022/01/14 23:41:34;;;;;;;53.25;30.92;;;;;;;3.82;93.90;101454.63;10463299;28;20049;-74
2022/01/14 23:51:43;;;;;;;;;;;;;;;3.61;95.17;101452.50;10463793;28;20072;-74